sensor_id;sensor_type;location;lat;lon;timestamp;P1;durP1;ratioP1;P2;durP2;ratioP2
51214;SDS011;63849;47.546;19.254;2023-11-19T00:00:49;17.27;;;10.95;;
51214;SDS011;63849;47.546;19.254;2023-11-19T00:03:16;13.27;;;9.90;;
51214;SDS011;63849;47.546;19.254;2023-11-19T00:05:43;15.52;;;11.30;;
51214;SDS011;63849;47.546;19.254;2023-11-19T00:08:09;14.52;;;10.50;;
51214;SDS011;63849;47.546;19.254;2023-11-19T00:10:35;18.85;;;11.10;;
51214;SDS011;63849;47.546;19.254;2023-11-19T00:13:01;15.75;;;10.80;;
51214;SDS011;63849;47.546;19.254;2023-11-19T00:15:27;16.60;;;12.15;;
51214;SDS011;63849;47.546;19.254;2023-11-19T00:17:53;15.43;;;10.27;;
51214;SDS011;63849;47.546;19.254;2023-11-19T00:20:20;14.65;;;10.80;;
51214;SDS011;63849;47.546;19.254;2023-11-19T00:22:48;15.77;;;11.18;;
51214;SDS011;63849;47.546;19.254;2023-11-19T00:25:18;16.60;;;11.60;;
51214;SDS011;63849;47.546;19.254;2023-11-19T00:27:44;15.95;;;11.93;;
51214;SDS011;63849;47.546;19.254;2023-11-19T00:30:10;16.95;;;12.18;;
51214;SDS011;63849;47.546;19.254;2023-11-19T00:32:36;21.88;;;13.70;;
51214;SDS011;63849;47.546;19.254;2023-11-19T00:35:04;21.40;;;13.77;;
51214;SDS011;63849;47.546;19.254;2023-11-19T00:37:31;23.25;;;15.13;;
51214;SDS011;63849;47.546;19.254;2023-11-19T00:39:57;24.38;;;16.15;;
51214;SDS011;63849;47.546;19.254;2023-11-19T00:42:23;26.88;;;15.43;;
51214;SDS011;63849;47.546;19.254;2023-11-19T00:44:49;22.30;;;14.52;;
51214;SDS011;63849;47.546;19.254;2023-11-19T00:47:16;21.45;;;14.30;;
51214;SDS011;63849;47.546;19.254;2023-11-19T00:49:45;23.23;;;14.57;;
51214;SDS011;63849;47.546;19.254;2023-11-19T00:52:18;18.00;;;12.45;;
51214;SDS011;63849;47.546;19.254;2023-11-19T00:54:43;21.50;;;13.30;;
51214;SDS011;63849;47.546;19.254;2023-11-19T00:57:09;18.80;;;13.13;;
51214;SDS011;63849;47.546;19.254;2023-11-19T00:59:35;18.52;;;13.25;;
51214;SDS011;63849;47.546;19.254;2023-11-19T01:02:01;22.45;;;14.43;;
51214;SDS011;63849;47.546;19.254;2023-11-19T01:04:34;24.42;;;15.10;;
51214;SDS011;63849;47.546;19.254;2023-11-19T01:07:01;24.45;;;15.80;;
51214;SDS011;63849;47.546;19.254;2023-11-19T01:09:32;28.48;;;15.75;;
51214;SDS011;63849;47.546;19.254;2023-11-19T01:12:01;29.45;;;16.60;;
51214;SDS011;63849;47.546;19.254;2023-11-19T01:14:27;23.92;;;15.85;;
51214;SDS011;63849;47.546;19.254;2023-11-19T01:16:54;23.95;;;14.85;;
51214;SDS011;63849;47.546;19.254;2023-11-19T01:19:23;25.40;;;15.13;;
51214;SDS011;63849;47.546;19.254;2023-11-19T01:21:50;27.67;;;16.73;;
51214;SDS011;63849;47.546;19.254;2023-11-19T01:24:16;28.45;;;16.38;;
51214;SDS011;63849;47.546;19.254;2023-11-19T01:26:43;27.58;;;15.63;;
51214;SDS011;63849;47.546;19.254;2023-11-19T01:29:13;28.35;;;16.88;;
51214;SDS011;63849;47.546;19.254;2023-11-19T01:31:45;26.02;;;15.85;;
51214;SDS011;63849;47.546;19.254;2023-11-19T01:34:16;26.08;;;14.80;;
51214;SDS011;63849;47.546;19.254;2023-11-19T01:36:42;20.10;;;13.93;;
51214;SDS011;63849;47.546;19.254;2023-11-19T01:39:07;24.58;;;13.57;;
51214;SDS011;63849;47.546;19.254;2023-11-19T01:41:34;19.52;;;12.57;;
51214;SDS011;63849;47.546;19.254;2023-11-19T01:44:01;20.55;;;13.38;;
51214;SDS011;63849;47.546;19.254;2023-11-19T01:46:26;19.23;;;11.05;;
51214;SDS011;63849;47.546;19.254;2023-11-19T01:48:53;20.35;;;12.43;;
51214;SDS011;63849;47.546;19.254;2023-11-19T01:51:19;22.70;;;13.30;;
51214;SDS011;63849;47.546;19.254;2023-11-19T01:53:46;21.23;;;12.73;;
51214;SDS011;63849;47.546;19.254;2023-11-19T01:56:13;20.65;;;13.15;;
51214;SDS011;63849;47.546;19.254;2023-11-19T01:58:40;18.17;;;11.63;;
51214;SDS011;63849;47.546;19.254;2023-11-19T02:01:07;22.00;;;13.48;;
51214;SDS011;63849;47.546;19.254;2023-11-19T02:03:34;20.10;;;12.10;;
51214;SDS011;63849;47.546;19.254;2023-11-19T02:06:00;21.27;;;12.48;;
51214;SDS011;63849;47.546;19.254;2023-11-19T02:08:26;21.02;;;13.35;;
51214;SDS011;63849;47.546;19.254;2023-11-19T02:10:52;23.23;;;13.55;;
51214;SDS011;63849;47.546;19.254;2023-11-19T02:13:22;26.73;;;14.80;;
51214;SDS011;63849;47.546;19.254;2023-11-19T02:15:48;29.73;;;17.17;;
51214;SDS011;63849;47.546;19.254;2023-11-19T02:18:17;44.78;;;22.85;;
51214;SDS011;63849;47.546;19.254;2023-11-19T02:20:47;43.88;;;24.45;;
51214;SDS011;63849;47.546;19.254;2023-11-19T02:23:14;47.13;;;25.15;;
51214;SDS011;63849;47.546;19.254;2023-11-19T02:25:40;43.03;;;24.55;;
51214;SDS011;63849;47.546;19.254;2023-11-19T02:28:07;43.75;;;25.20;;
51214;SDS011;63849;47.546;19.254;2023-11-19T02:30:37;42.20;;;24.08;;
51214;SDS011;63849;47.546;19.254;2023-11-19T02:33:03;42.50;;;23.75;;
51214;SDS011;63849;47.546;19.254;2023-11-19T02:35:31;41.65;;;23.25;;
51214;SDS011;63849;47.546;19.254;2023-11-19T02:37:58;33.75;;;20.50;;
51214;SDS011;63849;47.546;19.254;2023-11-19T02:40:25;32.20;;;18.35;;
51214;SDS011;63849;47.546;19.254;2023-11-19T02:42:52;28.52;;;18.38;;
51214;SDS011;63849;47.546;19.254;2023-11-19T02:45:20;29.42;;;17.83;;
51214;SDS011;63849;47.546;19.254;2023-11-19T02:47:47;27.33;;;19.23;;
51214;SDS011;63849;47.546;19.254;2023-11-19T02:50:13;30.25;;;19.33;;
51214;SDS011;63849;47.546;19.254;2023-11-19T02:52:43;31.38;;;19.25;;
51214;SDS011;63849;47.546;19.254;2023-11-19T02:55:10;25.15;;;18.05;;
51214;SDS011;63849;47.546;19.254;2023-11-19T02:57:41;31.30;;;18.63;;
51214;SDS011;63849;47.546;19.254;2023-11-19T03:00:20;29.42;;;18.33;;
51214;SDS011;63849;47.546;19.254;2023-11-19T03:02:50;37.85;;;22.58;;
51214;SDS011;63849;47.546;19.254;2023-11-19T03:05:35;39.22;;;23.67;;
51214;SDS011;63849;47.546;19.254;2023-11-19T03:08:00;40.88;;;22.88;;
51214;SDS011;63849;47.546;19.254;2023-11-19T03:10:26;36.58;;;21.17;;
51214;SDS011;63849;47.546;19.254;2023-11-19T03:12:54;74.88;;;37.90;;
51214;SDS011;63849;47.546;19.254;2023-11-19T03:15:22;66.30;;;34.53;;
51214;SDS011;63849;47.546;19.254;2023-11-19T03:17:47;58.13;;;30.40;;
51214;SDS011;63849;47.546;19.254;2023-11-19T03:20:13;49.22;;;27.45;;
51214;SDS011;63849;47.546;19.254;2023-11-19T03:22:42;50.50;;;27.38;;
51214;SDS011;63849;47.546;19.254;2023-11-19T03:25:09;37.60;;;21.58;;
51214;SDS011;63849;47.546;19.254;2023-11-19T03:27:35;38.00;;;22.02;;
51214;SDS011;63849;47.546;19.254;2023-11-19T03:30:05;37.15;;;22.92;;
51214;SDS011;63849;47.546;19.254;2023-11-19T03:32:32;32.95;;;19.60;;
51214;SDS011;63849;47.546;19.254;2023-11-19T03:35:00;32.15;;;19.98;;
51214;SDS011;63849;47.546;19.254;2023-11-19T03:37:26;31.45;;;19.95;;
51214;SDS011;63849;47.546;19.254;2023-11-19T03:39:53;27.50;;;17.15;;
51214;SDS011;63849;47.546;19.254;2023-11-19T03:42:20;28.58;;;18.30;;
51214;SDS011;63849;47.546;19.254;2023-11-19T03:44:46;29.77;;;18.95;;
51214;SDS011;63849;47.546;19.254;2023-11-19T03:47:11;29.67;;;17.88;;
51214;SDS011;63849;47.546;19.254;2023-11-19T03:49:37;26.50;;;15.57;;
51214;SDS011;63849;47.546;19.254;2023-11-19T03:52:03;26.23;;;16.42;;
51214;SDS011;63849;47.546;19.254;2023-11-19T03:54:31;24.80;;;15.88;;
51214;SDS011;63849;47.546;19.254;2023-11-19T03:56:58;25.52;;;15.45;;
51214;SDS011;63849;47.546;19.254;2023-11-19T03:59:25;22.42;;;15.00;;
51214;SDS011;63849;47.546;19.254;2023-11-19T04:01:51;22.40;;;15.25;;
51214;SDS011;63849;47.546;19.254;2023-11-19T04:04:18;20.42;;;13.75;;
51214;SDS011;63849;47.546;19.254;2023-11-19T04:06:44;20.85;;;13.75;;
51214;SDS011;63849;47.546;19.254;2023-11-19T04:09:10;16.27;;;11.90;;
51214;SDS011;63849;47.546;19.254;2023-11-19T04:11:36;19.70;;;12.20;;
51214;SDS011;63849;47.546;19.254;2023-11-19T04:14:01;16.63;;;12.80;;
51214;SDS011;63849;47.546;19.254;2023-11-19T04:16:27;19.55;;;13.27;;
51214;SDS011;63849;47.546;19.254;2023-11-19T04:18:54;19.85;;;12.57;;
51214;SDS011;63849;47.546;19.254;2023-11-19T04:21:19;19.33;;;12.15;;
51214;SDS011;63849;47.546;19.254;2023-11-19T04:23:45;20.75;;;12.32;;
51214;SDS011;63849;47.546;19.254;2023-11-19T04:26:11;17.35;;;11.85;;
51214;SDS011;63849;47.546;19.254;2023-11-19T04:28:38;24.50;;;15.18;;
51214;SDS011;63849;47.546;19.254;2023-11-19T04:31:04;26.38;;;16.45;;
51214;SDS011;63849;47.546;19.254;2023-11-19T04:33:31;24.90;;;16.08;;
51214;SDS011;63849;47.546;19.254;2023-11-19T04:35:56;22.85;;;14.85;;
51214;SDS011;63849;47.546;19.254;2023-11-19T04:38:22;21.20;;;13.93;;
51214;SDS011;63849;47.546;19.254;2023-11-19T04:40:48;20.55;;;13.80;;
51214;SDS011;63849;47.546;19.254;2023-11-19T04:43:14;16.75;;;12.00;;
51214;SDS011;63849;47.546;19.254;2023-11-19T04:45:40;20.60;;;12.88;;
51214;SDS011;63849;47.546;19.254;2023-11-19T04:48:07;18.90;;;13.48;;
51214;SDS011;63849;47.546;19.254;2023-11-19T04:50:34;19.98;;;12.43;;
51214;SDS011;63849;47.546;19.254;2023-11-19T04:53:00;18.33;;;12.02;;
51214;SDS011;63849;47.546;19.254;2023-11-19T04:55:25;16.65;;;11.93;;
51214;SDS011;63849;47.546;19.254;2023-11-19T04:57:53;17.58;;;11.35;;
51214;SDS011;63849;47.546;19.254;2023-11-19T05:00:20;18.27;;;12.55;;
51214;SDS011;63849;47.546;19.254;2023-11-19T05:02:46;16.92;;;12.30;;
51214;SDS011;63849;47.546;19.254;2023-11-19T05:05:12;17.17;;;12.73;;
51214;SDS011;63849;47.546;19.254;2023-11-19T05:07:38;17.17;;;11.85;;
51214;SDS011;63849;47.546;19.254;2023-11-19T05:10:04;17.73;;;12.10;;
51214;SDS011;63849;47.546;19.254;2023-11-19T05:12:31;16.40;;;11.40;;
51214;SDS011;63849;47.546;19.254;2023-11-19T05:14:56;17.17;;;11.60;;
51214;SDS011;63849;47.546;19.254;2023-11-19T05:17:23;19.60;;;13.00;;
51214;SDS011;63849;47.546;19.254;2023-11-19T05:19:49;16.92;;;12.32;;
51214;SDS011;63849;47.546;19.254;2023-11-19T05:22:14;20.80;;;13.40;;
51214;SDS011;63849;47.546;19.254;2023-11-19T05:24:40;18.42;;;12.85;;
51214;SDS011;63849;47.546;19.254;2023-11-19T05:27:07;19.52;;;12.95;;
51214;SDS011;63849;47.546;19.254;2023-11-19T05:29:33;18.52;;;13.00;;
51214;SDS011;63849;47.546;19.254;2023-11-19T05:31:59;17.95;;;12.75;;
51214;SDS011;63849;47.546;19.254;2023-11-19T05:34:26;19.50;;;13.20;;
51214;SDS011;63849;47.546;19.254;2023-11-19T05:36:52;20.95;;;14.18;;
51214;SDS011;63849;47.546;19.254;2023-11-19T05:39:18;19.65;;;13.27;;
51214;SDS011;63849;47.546;19.254;2023-11-19T05:41:45;20.05;;;13.73;;
51214;SDS011;63849;47.546;19.254;2023-11-19T05:44:11;21.42;;;13.68;;
51214;SDS011;63849;47.546;19.254;2023-11-19T05:46:36;19.45;;;13.88;;
51214;SDS011;63849;47.546;19.254;2023-11-19T05:49:06;19.98;;;14.15;;
51214;SDS011;63849;47.546;19.254;2023-11-19T05:51:32;19.70;;;13.13;;
51214;SDS011;63849;47.546;19.254;2023-11-19T05:54:03;17.35;;;12.35;;
51214;SDS011;63849;47.546;19.254;2023-11-19T05:56:32;20.50;;;13.85;;
51214;SDS011;63849;47.546;19.254;2023-11-19T05:58:58;20.73;;;14.15;;
51214;SDS011;63849;47.546;19.254;2023-11-19T06:01:39;22.63;;;15.27;;
51214;SDS011;63849;47.546;19.254;2023-11-19T06:04:06;25.25;;;16.90;;
51214;SDS011;63849;47.546;19.254;2023-11-19T06:06:32;27.00;;;15.80;;
51214;SDS011;63849;47.546;19.254;2023-11-19T06:08:59;23.00;;;14.15;;
51214;SDS011;63849;47.546;19.254;2023-11-19T06:11:24;20.30;;;14.73;;
51214;SDS011;63849;47.546;19.254;2023-11-19T06:13:52;25.73;;;16.02;;
51214;SDS011;63849;47.546;19.254;2023-11-19T06:16:18;25.40;;;16.85;;
51214;SDS011;63849;47.546;19.254;2023-11-19T06:18:44;29.90;;;18.65;;
51214;SDS011;63849;47.546;19.254;2023-11-19T06:21:10;29.95;;;18.55;;
51214;SDS011;63849;47.546;19.254;2023-11-19T06:23:39;26.05;;;18.27;;
51214;SDS011;63849;47.546;19.254;2023-11-19T06:26:05;28.48;;;19.38;;
51214;SDS011;63849;47.546;19.254;2023-11-19T06:28:31;29.73;;;19.58;;
51214;SDS011;63849;47.546;19.254;2023-11-19T06:30:57;28.25;;;18.65;;
51214;SDS011;63849;47.546;19.254;2023-11-19T06:33:24;28.17;;;19.13;;
51214;SDS011;63849;47.546;19.254;2023-11-19T06:35:50;28.92;;;20.48;;
51214;SDS011;63849;47.546;19.254;2023-11-19T06:38:15;31.48;;;21.27;;
51214;SDS011;63849;47.546;19.254;2023-11-19T06:40:42;32.60;;;21.85;;
51214;SDS011;63849;47.546;19.254;2023-11-19T06:43:08;28.17;;;20.73;;
51214;SDS011;63849;47.546;19.254;2023-11-19T06:45:34;27.40;;;20.75;;
51214;SDS011;63849;47.546;19.254;2023-11-19T06:48:01;32.20;;;20.35;;
51214;SDS011;63849;47.546;19.254;2023-11-19T06:50:31;34.67;;;20.35;;
51214;SDS011;63849;47.546;19.254;2023-11-19T06:52:57;63.78;;;28.30;;
51214;SDS011;63849;47.546;19.254;2023-11-19T06:55:23;72.70;;;32.50;;
51214;SDS011;63849;47.546;19.254;2023-11-19T06:57:48;60.33;;;28.15;;
51214;SDS011;63849;47.546;19.254;2023-11-19T07:00:16;61.70;;;27.88;;
51214;SDS011;63849;47.546;19.254;2023-11-19T07:02:43;48.47;;;24.23;;
51214;SDS011;63849;47.546;19.254;2023-11-19T07:05:09;58.92;;;28.83;;
51214;SDS011;63849;47.546;19.254;2023-11-19T07:07:37;41.28;;;23.77;;
51214;SDS011;63849;47.546;19.254;2023-11-19T07:10:03;33.70;;;19.23;;
51214;SDS011;63849;47.546;19.254;2023-11-19T07:12:30;26.90;;;18.23;;
51214;SDS011;63849;47.546;19.254;2023-11-19T07:14:56;30.95;;;19.92;;
51214;SDS011;63849;47.546;19.254;2023-11-19T07:17:22;26.50;;;17.23;;
51214;SDS011;63849;47.546;19.254;2023-11-19T07:19:49;31.73;;;19.02;;
51214;SDS011;63849;47.546;19.254;2023-11-19T07:22:16;29.67;;;18.75;;
51214;SDS011;63849;47.546;19.254;2023-11-19T07:24:42;29.02;;;18.75;;
51214;SDS011;63849;47.546;19.254;2023-11-19T07:27:08;23.70;;;16.80;;
51214;SDS011;63849;47.546;19.254;2023-11-19T07:29:34;23.75;;;17.08;;
51214;SDS011;63849;47.546;19.254;2023-11-19T07:32:01;23.95;;;16.65;;
51214;SDS011;63849;47.546;19.254;2023-11-19T07:34:27;19.60;;;14.75;;
51214;SDS011;63849;47.546;19.254;2023-11-19T07:36:54;20.90;;;15.30;;
51214;SDS011;63849;47.546;19.254;2023-11-19T07:39:24;18.73;;;14.02;;
51214;SDS011;63849;47.546;19.254;2023-11-19T07:41:50;18.38;;;13.73;;
51214;SDS011;63849;47.546;19.254;2023-11-19T07:44:16;18.70;;;13.10;;
51214;SDS011;63849;47.546;19.254;2023-11-19T07:46:41;19.27;;;13.63;;
51214;SDS011;63849;47.546;19.254;2023-11-19T07:49:07;17.75;;;12.68;;
51214;SDS011;63849;47.546;19.254;2023-11-19T07:51:35;18.33;;;14.00;;
51214;SDS011;63849;47.546;19.254;2023-11-19T07:54:01;19.55;;;13.35;;
51214;SDS011;63849;47.546;19.254;2023-11-19T07:56:27;17.35;;;13.30;;
51214;SDS011;63849;47.546;19.254;2023-11-19T07:58:52;17.85;;;13.00;;
51214;SDS011;63849;47.546;19.254;2023-11-19T08:01:18;17.67;;;12.77;;
51214;SDS011;63849;47.546;19.254;2023-11-19T08:03:44;15.88;;;12.88;;
51214;SDS011;63849;47.546;19.254;2023-11-19T08:06:09;19.33;;;13.30;;
51214;SDS011;63849;47.546;19.254;2023-11-19T08:08:35;16.90;;;13.10;;
51214;SDS011;63849;47.546;19.254;2023-11-19T08:11:03;17.17;;;13.25;;
51214;SDS011;63849;47.546;19.254;2023-11-19T08:13:30;20.75;;;13.93;;
51214;SDS011;63849;47.546;19.254;2023-11-19T08:15:57;20.17;;;13.85;;
51214;SDS011;63849;47.546;19.254;2023-11-19T08:18:23;19.30;;;13.55;;
51214;SDS011;63849;47.546;19.254;2023-11-19T08:20:49;19.10;;;12.90;;
51214;SDS011;63849;47.546;19.254;2023-11-19T08:23:19;18.92;;;13.60;;
51214;SDS011;63849;47.546;19.254;2023-11-19T08:25:45;16.85;;;12.90;;
51214;SDS011;63849;47.546;19.254;2023-11-19T08:28:11;17.23;;;12.90;;
51214;SDS011;63849;47.546;19.254;2023-11-19T08:30:37;20.60;;;14.73;;
51214;SDS011;63849;47.546;19.254;2023-11-19T08:33:03;23.00;;;15.80;;
51214;SDS011;63849;47.546;19.254;2023-11-19T08:35:32;17.83;;;13.43;;
51214;SDS011;63849;47.546;19.254;2023-11-19T08:37:58;19.92;;;14.13;;
51214;SDS011;63849;47.546;19.254;2023-11-19T08:40:24;17.63;;;13.30;;
51214;SDS011;63849;47.546;19.254;2023-11-19T08:42:51;17.77;;;13.75;;
51214;SDS011;63849;47.546;19.254;2023-11-19T08:45:17;19.05;;;13.52;;
51214;SDS011;63849;47.546;19.254;2023-11-19T08:47:43;20.65;;;14.18;;
51214;SDS011;63849;47.546;19.254;2023-11-19T08:50:10;21.45;;;15.70;;
51214;SDS011;63849;47.546;19.254;2023-11-19T08:52:36;39.05;;;27.25;;
51214;SDS011;63849;47.546;19.254;2023-11-19T08:55:02;39.20;;;26.13;;
51214;SDS011;63849;47.546;19.254;2023-11-19T08:57:30;32.28;;;21.95;;
51214;SDS011;63849;47.546;19.254;2023-11-19T08:59:57;41.50;;;23.45;;
51214;SDS011;63849;47.546;19.254;2023-11-19T09:02:23;26.67;;;20.17;;
51214;SDS011;63849;47.546;19.254;2023-11-19T09:04:49;21.00;;;14.98;;
51214;SDS011;63849;47.546;19.254;2023-11-19T09:07:15;19.30;;;15.02;;
51214;SDS011;63849;47.546;19.254;2023-11-19T09:09:41;17.48;;;13.52;;
51214;SDS011;63849;47.546;19.254;2023-11-19T09:12:07;17.02;;;12.82;;
51214;SDS011;63849;47.546;19.254;2023-11-19T09:14:33;18.88;;;12.10;;
51214;SDS011;63849;47.546;19.254;2023-11-19T09:16:59;19.83;;;14.32;;
51214;SDS011;63849;47.546;19.254;2023-11-19T09:19:25;18.83;;;14.98;;
51214;SDS011;63849;47.546;19.254;2023-11-19T09:21:53;29.77;;;21.67;;
51214;SDS011;63849;47.546;19.254;2023-11-19T09:24:19;22.70;;;17.13;;
51214;SDS011;63849;47.546;19.254;2023-11-19T09:26:45;18.92;;;13.77;;
51214;SDS011;63849;47.546;19.254;2023-11-19T09:29:11;30.00;;;19.98;;
51214;SDS011;63849;47.546;19.254;2023-11-19T09:31:39;26.90;;;16.52;;
51214;SDS011;63849;47.546;19.254;2023-11-19T09:34:06;18.85;;;14.70;;
51214;SDS011;63849;47.546;19.254;2023-11-19T09:36:32;20.65;;;14.27;;
51214;SDS011;63849;47.546;19.254;2023-11-19T09:38:58;52.90;;;28.05;;
51214;SDS011;63849;47.546;19.254;2023-11-19T09:41:27;42.85;;;25.58;;
51214;SDS011;63849;47.546;19.254;2023-11-19T09:43:54;28.27;;;19.20;;
51214;SDS011;63849;47.546;19.254;2023-11-19T09:46:20;18.98;;;14.10;;
51214;SDS011;63849;47.546;19.254;2023-11-19T09:48:49;18.55;;;14.20;;
51214;SDS011;63849;47.546;19.254;2023-11-19T09:51:19;31.77;;;19.52;;
51214;SDS011;63849;47.546;19.254;2023-11-19T09:53:46;40.42;;;24.08;;
51214;SDS011;63849;47.546;19.254;2023-11-19T09:56:12;46.05;;;27.20;;
51214;SDS011;63849;47.546;19.254;2023-11-19T09:58:38;39.85;;;23.55;;
51214;SDS011;63849;47.546;19.254;2023-11-19T10:01:05;33.85;;;22.02;;
51214;SDS011;63849;47.546;19.254;2023-11-19T10:03:35;31.40;;;21.30;;
51214;SDS011;63849;47.546;19.254;2023-11-19T10:06:08;35.95;;;23.38;;
51214;SDS011;63849;47.546;19.254;2023-11-19T10:08:38;24.35;;;16.55;;
51214;SDS011;63849;47.546;19.254;2023-11-19T10:11:07;22.33;;;15.73;;
51214;SDS011;63849;47.546;19.254;2023-11-19T10:13:35;32.13;;;19.45;;
51214;SDS011;63849;47.546;19.254;2023-11-19T10:16:08;37.72;;;22.58;;
51214;SDS011;63849;47.546;19.254;2023-11-19T10:18:36;27.63;;;18.88;;
51214;SDS011;63849;47.546;19.254;2023-11-19T10:21:06;30.02;;;20.95;;
51214;SDS011;63849;47.546;19.254;2023-11-19T10:23:53;30.08;;;19.67;;
51214;SDS011;63849;47.546;19.254;2023-11-19T10:26:25;35.35;;;22.35;;
51214;SDS011;63849;47.546;19.254;2023-11-19T10:28:52;30.60;;;20.15;;
51214;SDS011;63849;47.546;19.254;2023-11-19T10:31:19;64.13;;;31.13;;
51214;SDS011;63849;47.546;19.254;2023-11-19T10:33:50;70.57;;;34.80;;
51214;SDS011;63849;47.546;19.254;2023-11-19T10:36:16;41.17;;;22.25;;
51214;SDS011;63849;47.546;19.254;2023-11-19T10:38:51;25.90;;;17.83;;
51214;SDS011;63849;47.546;19.254;2023-11-19T10:41:28;37.25;;;22.90;;
51214;SDS011;63849;47.546;19.254;2023-11-19T10:43:55;52.28;;;28.58;;
51214;SDS011;63849;47.546;19.254;2023-11-19T10:46:21;42.40;;;24.70;;
51214;SDS011;63849;47.546;19.254;2023-11-19T10:48:48;43.10;;;25.27;;
51214;SDS011;63849;47.546;19.254;2023-11-19T10:51:18;32.00;;;20.55;;
51214;SDS011;63849;47.546;19.254;2023-11-19T10:53:49;27.48;;;17.80;;
51214;SDS011;63849;47.546;19.254;2023-11-19T10:56:20;46.00;;;26.88;;
51214;SDS011;63849;47.546;19.254;2023-11-19T10:58:49;31.80;;;20.63;;
51214;SDS011;63849;47.546;19.254;2023-11-19T11:01:20;26.90;;;18.85;;
51214;SDS011;63849;47.546;19.254;2023-11-19T11:03:50;23.88;;;18.02;;
51214;SDS011;63849;47.546;19.254;2023-11-19T11:06:19;29.85;;;20.35;;
51214;SDS011;63849;47.546;19.254;2023-11-19T11:08:47;29.92;;;21.58;;
51214;SDS011;63849;47.546;19.254;2023-11-19T11:11:15;36.47;;;24.90;;
51214;SDS011;63849;47.546;19.254;2023-11-19T11:13:48;33.55;;;22.50;;
51214;SDS011;63849;47.546;19.254;2023-11-19T11:16:18;28.63;;;20.83;;
51214;SDS011;63849;47.546;19.254;2023-11-19T11:18:48;30.80;;;20.70;;
51214;SDS011;63849;47.546;19.254;2023-11-19T11:21:16;26.58;;;19.88;;
51214;SDS011;63849;47.546;19.254;2023-11-19T11:29:17;27.40;;;19.30;;
51214;SDS011;63849;47.546;19.254;2023-11-19T11:37:50;24.83;;;17.52;;
51214;SDS011;63849;47.546;19.254;2023-11-19T11:40:22;27.98;;;18.90;;
51214;SDS011;63849;47.546;19.254;2023-11-19T11:42:48;24.35;;;17.65;;
51214;SDS011;63849;47.546;19.254;2023-11-19T11:45:17;26.48;;;18.38;;
51214;SDS011;63849;47.546;19.254;2023-11-19T11:50:12;28.50;;;20.50;;
51214;SDS011;63849;47.546;19.254;2023-11-19T11:58:01;28.80;;;18.65;;
51214;SDS011;63849;47.546;19.254;2023-11-19T12:02:56;24.77;;;19.00;;
51214;SDS011;63849;47.546;19.254;2023-11-19T12:05:22;24.05;;;17.83;;
51214;SDS011;63849;47.546;19.254;2023-11-19T12:07:55;30.92;;;21.13;;
51214;SDS011;63849;47.546;19.254;2023-11-19T12:10:25;27.45;;;19.83;;
51214;SDS011;63849;47.546;19.254;2023-11-19T12:12:58;25.15;;;17.83;;
51214;SDS011;63849;47.546;19.254;2023-11-19T12:15:24;25.40;;;18.35;;
51214;SDS011;63849;47.546;19.254;2023-11-19T12:17:51;28.25;;;20.30;;
51214;SDS011;63849;47.546;19.254;2023-11-19T12:20:18;25.27;;;18.50;;
51214;SDS011;63849;47.546;19.254;2023-11-19T12:22:45;25.50;;;17.33;;
51214;SDS011;63849;47.546;19.254;2023-11-19T12:25:14;28.60;;;18.17;;
51214;SDS011;63849;47.546;19.254;2023-11-19T12:27:45;26.08;;;17.98;;
51214;SDS011;63849;47.546;19.254;2023-11-19T12:30:16;18.95;;;14.43;;
51214;SDS011;63849;47.546;19.254;2023-11-19T12:35:12;18.80;;;13.60;;
51214;SDS011;63849;47.546;19.254;2023-11-19T12:37:39;20.65;;;14.23;;
51214;SDS011;63849;47.546;19.254;2023-11-19T12:40:15;18.98;;;14.65;;
51214;SDS011;63849;47.546;19.254;2023-11-19T12:42:45;18.98;;;15.35;;
51214;SDS011;63849;47.546;19.254;2023-11-19T12:45:12;23.10;;;16.08;;
51214;SDS011;63849;47.546;19.254;2023-11-19T12:47:42;23.58;;;16.95;;
51214;SDS011;63849;47.546;19.254;2023-11-19T12:50:09;19.63;;;14.48;;
51214;SDS011;63849;47.546;19.254;2023-11-19T12:52:36;21.77;;;16.10;;
51214;SDS011;63849;47.546;19.254;2023-11-19T12:55:05;23.65;;;16.42;;
51214;SDS011;63849;47.546;19.254;2023-11-19T12:57:52;19.55;;;14.40;;
51214;SDS011;63849;47.546;19.254;2023-11-19T13:00:20;24.40;;;16.63;;
51214;SDS011;63849;47.546;19.254;2023-11-19T13:02:48;19.63;;;13.13;;
51214;SDS011;63849;47.546;19.254;2023-11-19T13:05:30;18.23;;;13.35;;
51214;SDS011;63849;47.546;19.254;2023-11-19T13:08:07;16.67;;;12.73;;
51214;SDS011;63849;47.546;19.254;2023-11-19T13:10:50;15.88;;;11.90;;
51214;SDS011;63849;47.546;19.254;2023-11-19T13:13:18;18.10;;;13.07;;
51214;SDS011;63849;47.546;19.254;2023-11-19T13:15:44;19.42;;;12.82;;
51214;SDS011;63849;47.546;19.254;2023-11-19T13:18:11;18.95;;;13.45;;
51214;SDS011;63849;47.546;19.254;2023-11-19T13:20:37;34.03;;;19.63;;
51214;SDS011;63849;47.546;19.254;2023-11-19T13:23:05;19.25;;;13.98;;
51214;SDS011;63849;47.546;19.254;2023-11-19T13:25:35;25.90;;;16.40;;
51214;SDS011;63849;47.546;19.254;2023-11-19T13:28:01;39.28;;;23.05;;
51214;SDS011;63849;47.546;19.254;2023-11-19T13:30:27;41.00;;;27.70;;
51214;SDS011;63849;47.546;19.254;2023-11-19T13:32:54;26.50;;;18.30;;
51214;SDS011;63849;47.546;19.254;2023-11-19T13:35:20;26.15;;;17.35;;
51214;SDS011;63849;47.546;19.254;2023-11-19T13:37:47;22.40;;;15.45;;
51214;SDS011;63849;47.546;19.254;2023-11-19T13:40:13;28.55;;;19.10;;
51214;SDS011;63849;47.546;19.254;2023-11-19T13:42:40;39.30;;;22.10;;
51214;SDS011;63849;47.546;19.254;2023-11-19T13:45:10;54.25;;;26.75;;
51214;SDS011;63849;47.546;19.254;2023-11-19T13:47:41;62.50;;;29.30;;
51214;SDS011;63849;47.546;19.254;2023-11-19T13:50:09;65.25;;;31.35;;
51214;SDS011;63849;47.546;19.254;2023-11-19T13:52:36;46.85;;;22.88;;
51214;SDS011;63849;47.546;19.254;2023-11-19T13:55:06;35.65;;;19.90;;
51214;SDS011;63849;47.546;19.254;2023-11-19T13:57:37;81.18;;;33.50;;
51214;SDS011;63849;47.546;19.254;2023-11-19T14:00:05;28.60;;;16.45;;
51214;SDS011;63849;47.546;19.254;2023-11-19T14:02:50;38.95;;;20.20;;
51214;SDS011;63849;47.546;19.254;2023-11-19T14:05:17;34.30;;;18.13;;
51214;SDS011;63849;47.546;19.254;2023-11-19T14:07:43;54.58;;;28.52;;
51214;SDS011;63849;47.546;19.254;2023-11-19T14:10:09;40.45;;;20.27;;
51214;SDS011;63849;47.546;19.254;2023-11-19T14:12:38;26.98;;;17.63;;
51214;SDS011;63849;47.546;19.254;2023-11-19T14:15:05;37.92;;;22.98;;
51214;SDS011;63849;47.546;19.254;2023-11-19T14:17:34;50.75;;;29.65;;
51214;SDS011;63849;47.546;19.254;2023-11-19T14:20:00;39.10;;;23.95;;
51214;SDS011;63849;47.546;19.254;2023-11-19T14:22:26;41.78;;;25.33;;
51214;SDS011;63849;47.546;19.254;2023-11-19T14:24:52;37.10;;;23.30;;
51214;SDS011;63849;47.546;19.254;2023-11-19T14:27:17;32.92;;;22.45;;
51214;SDS011;63849;47.546;19.254;2023-11-19T14:29:43;35.17;;;22.15;;
51214;SDS011;63849;47.546;19.254;2023-11-19T14:32:12;34.78;;;21.77;;
51214;SDS011;63849;47.546;19.254;2023-11-19T14:34:38;36.65;;;21.92;;